Tinian, MP

2:27 PM ChST on July 28, 2014 (GMT +1000)
Saipan International (PGSN) Elev 213 ft | 15.12 °N, 145.73 °E | Change Station

Current weather conditions updated 33 minutes ago

Mostly Cloudy
Mostly Cloudy
84 °F
Feels Like 93 °F
N
6
Wind Variable Wind from West

Today is forecast to be nearly the same temperature as yesterday. Thunderstorms.

Today
High -- | Low -- °F
--% Chance of Precip.
Yesterday
High -- | Low -- °F
Precip. -- in
5:58 AM 6:48 PM
New Moon, 1% visible
Pressure 29.88 in
Visibility 10.0 miles
Clouds Few 1800 ft
Mostly Cloudy 5500 ft
Heat Index 93 °F
Dew Point 76 °F
Humidity 76%
Rainfall 1.02 in
Snow Depth Not available.
UV 8 out of 12
Pollen Not available.
Air Quality Not available.
Flu Activity Not available.
METAR PGSN 280354Z 28005KT 10SM FEW018 BKN055 29/24 A2981 RMK AO2 SLP116 T02900244 $

More Conditions Fewer Conditions

Pressure 29.88 in
Visibility 10.0 miles
Clouds Few 1800 ft
Mostly Cloudy 5500 ft
Heat Index 93 °F
Dew Point 76 °F
Humidity 76%
Rainfall 1.02 in
Snow Depth Not available.
UV 8 out of 12
Pollen Not available.
Air Quality Not available.
Flu Activity Not available.
METAR PGSN 280354Z 28005KT 10SM FEW018 BKN055 29/24 A2981 RMK AO2 SLP116 T02900244 $

More Conditions Fewer Conditions

10-Day Weather Forecast

Almanac

Astronomy

Jul. 28, 2014 Rise Set
Actual Time 5:58 AM ChST 6:48 PM ChST
Civil Twilight 5:35 AM ChST 7:11 PM ChST
Nautical Twilight 5:09 AM ChST 7:38 PM ChST
Astronomical Twilight 4:41 AM ChST 8:06 PM ChST
Moon 6:46 AM ChST 7:32 PM ChST
Length of Visible Light 13h 35m
Length of Day
12h 49m
Tomorrow will be 0m 35s shorter.
New Moon, 1% of the Moon is Illuminated
Today
New Moon
Aug 3
First Quarter
Aug 10
Full
Aug 17
Last Quarter
Aug 25
New

Community

WunderPhotos

Upload Photos

1,738,300 photos uploaded!

Nearby

Snow Depth

Station Depth Elevation
No new snow has been reported.

Earthquake Activity

City Distance Mag. Time & Date
No recent earthquake activity has been reported nearby.
Minimum magnitude displayed is 2.5.

Coastal Water Temperatures

Place Temperature
No Stations Reporting

Nearby Weather Stations

There are no personal weather stations in this area.